Amunt
Inicio > meteoXarxa
Fes-te'n soci

METEOXARXA

Alacant
Ubicació el Rebolledo
Comarca l′Alacantí
Altitud (msnm) 195
Posició geogràfica 38° 21' 6.12" N, 00° 38' 25.08" W
Model Davis Vantage Vue
Presa de dades
Font de les dades Joan Pérez Botella
Estadístiques. Resum
Data Temperatura (ºC) Humitat (%) Pressió (hPa) Vent (km/h) Precipit. (mm)
Mínima Mitjana Màxima Mínima Mitjana Màxima Mínima Mitjana Màxima Predom. Mitjana Ràfega màxima Total Dies de pluja
Mínima Mitjana Màxima Mínima Mitjana Màxima
Últimes dades diàries
29-03-2017 9,1     14,2     20,6 55,0 80,1 94,0 1.024,6 1.026,0 1.027,6 SSO 1,7 16,1 0,0  
28-03-2017 10,9     14,5     21,0 51,0 75,1 95,0 1.022,7 1.024,9 1.027,5 SSO 1,7 19,3 0,0  
27-03-2017 10,1     14,7     22,1 35,0 67,4 92,0 1.014,5 1.018,4 1.022,9 SSO 1,6 22,5 0,0  
26-03-2017 6,8     13,0     19,6 33,0 74,3 91,0 1.013,2 1.015,7 1.017,6 S 2,3 20,9 0,0  
25-03-2017 5,7     11,0     17,3 39,0 66,7 89,0 1.013,8 1.015,6 1.017,5 SSO 3,6 25,7 0,0  
24-03-2017 6,3     9,0     13,4 57,0 71,2 85,0 1.012,2 1.013,1 1.014,2 SO 0,9 20,9 0,0  
23-03-2017 8,6     11,7     14,8 30,0 55,2 68,0 1.008,8 1.010,5 1.012,5 SSO 3,8 33,8 0,0  
22-03-2017 13,0     13,1     13,2 68,0 68,6 69,0 1.013,4 1.013,4 1.013,5 OSO 1,6 27,4 0,0  
21-03-2017 11,0     16,6     20,7 53,0 74,6 94,0 1.010,9 1.012,4 1.014,0 SSE 1,5 29,0 0,0  
20-03-2017 13,7     13,9     14,3 74,0 77,0 85,0 1.012,9 1.013,1 1.013,3 NO 0,0 16,1 0,0  
17-03-2017 9,4     9,8     10,4 60,0 64,1 76,0 1.021,0 1.021,3 1.021,7 SE 0,0 4,8 0,0  
16-03-2017 7,2     12,2     17,4 52,0 73,8 94,0 1.020,8 1.022,2 1.023,6 S 1,9 19,3 0,0  
15-03-2017 8,9     13,4     18,0 45,0 62,7 79,0 1.022,0 1.023,5 1.024,8 S 3,1 25,7 0,0  
14-03-2017 10,9     14,2     19,1 43,0 72,6 99,0 1.020,2 1.023,2 1.025,1 ENE 6,8 37,0 3,3  
13-03-2017 7,4     9,9     11,9 82,0 92,7 99,0 1.010,8 1.014,5 1.021,4 SSE 4,5 41,8 82,6  
12-03-2017 12,0     16,9     20,7 40,0 68,0 94,0 1.011,5 1.013,1 1.015,2 S 2,3 24,1 6,1  
11-03-2017 11,4     17,0     23,2 44,0 67,9 85,0 1.014,1 1.015,3 1.017,7 SO 1,4 12,9 0,0  
10-03-2017 15,4     20,8     32,7 10,0 35,8 49,0 1.017,0 1.018,7 1.021,4 SSO 2,4 22,5 0,0  
09-03-2017 11,1     18,5     27,0 32,0 60,0 83,0 1.021,6 1.024,1 1.026,0 OSO 2,2 20,9 0,0  
08-03-2017 13,1     17,0     20,9 44,0 58,8 79,0 1.021,1 1.024,5 1.026,4 S 1,8 19,3 0,0  
07-03-2017 16,0     19,7     24,4 31,0 47,7 66,0 1.019,4 1.021,0 1.023,0 OSO 6,8 40,2 0,0  
06-03-2017 13,4     18,1     22,3 44,0 57,4 76,0 1.017,8 1.020,2 1.023,0 SO 5,8 38,6 0,0  
05-03-2017 7,9     13,5     20,6 51,0 64,8 74,0 1.014,0 1.017,9 1.021,6 SO 3,5 24,1 0,0  
04-03-2017 6,3     9,4     12,8 50,0 66,8 82,0 1.006,6 1.009,3 1.013,8 OSO 3,6 27,4 1,0  
03-03-2017 7,7     11,5     16,1 69,0 84,1 97,0 1.001,1 1.008,7 1.016,6 S 2,1 22,5 2,5  
02-03-2017 9,1     13,7     22,0 41,0 74,6 91,0 1.016,3 1.017,9 1.019,8 SSO 2,3 17,7 0,0  
01-03-2017 10,0     13,8     17,8 58,0 69,7 87,0 1.016,4 1.018,7 1.020,6 S 2,4 24,1 0,0  
28-02-2017 12,2     16,3     21,7 38,0 50,6 66,0 1.011,3 1.013,3 1.017,0 SO 4,0 33,8 0,0  
27-02-2017 8,2     14,5     21,1 42,0 67,8 98,0 1.012,9 1.015,4 1.018,6 O 1,9 24,1 0,3  
26-02-2017 7,7     12,0     17,4 67,0 87,5 97,0 1.018,8 1.020,2 1.022,2 SSO 1,3 14,5 0,0  
25-02-2017 10,3     12,7     16,1 72,0 88,2 96,0 1.016,1 1.018,5 1.021,2 SSE 0,8 11,3 1,3  
24-02-2017 11,6     13,8     17,3 68,0 84,3 93,0 1.009,9 1.012,0 1.016,1 S 0,8 12,9 0,0  
Dades del mes en curs (actualitzades fins l'últim dia disponible)
03/2017 5,7 10,1 16,0 14,1 10,4 19,0 32,7 10,0 67,8 99,0 1.001,1 1.017,7 1.027,6   2,7 41,8 95,5  
Últimes dades mensuals
02/2017 5,7 8,9 12,7 12,9 12,8 17,7 21,7 43,0 68,1 88,2 1.004,8 1.018,4 1.030,6 2,5 56,3 7,6 4
01/2017 -0,4 5,9 12,1 10,5 6,8 14,6 19,2 2,5 41,8 134,4 4
12/2016 6,4 8,8 13,4 12,4 11,8 16,4 19,4 1,3 41,8 131,5 12
11/2016 5,7 10,7 16,6 14,6 12,9 20,0 27,9 1,9 33,8 54,2 8
10/2016 10,8 15,7 19,7 20,0 19,7 25,4 28,7 1,4 27,4 33,5 8
09/2016 15,2 18,7 23,8 23,6 26,4 29,6 40,9 2,1 27,4 0,5 1
08/2016 17,5 20,3 22,8 25,0 27,8 30,3 35,2 2,2 32,2 3,0 2
07/2016 17,4 20,8 23,3 25,9 26,9 31,4 39,4 2,5 30,6 2,5 2
06/2016 14,0 17,8 21,2 23,2 25,3 29,1 37,3 2,5 27,4 0,8 1
05/2016 7,2 13,2 16,8 18,4 17,7 24,3 31,5 2,4 38,6 19,1 6
04/2016 6,0 11,1 15,2 15,7 16,7 21,5 25,6 2,3 40,2 27,7 6
03/2016 4,5 8,7 14,2 13,5 11,7 19,4 27,0 2,4 37,0 28,3 6
02/2016 3,2 9,0 17,2 13,2 11,8 18,6 24,3 3,5 46,7 3,3 3
Dades de l'any en curs (actualitzades fins l'últim dia disponible)
2017 -0,4 8,4 16,0 12,6 6,8 17,3 32,7 10,0 68,0 99,0 1.001,1 1.018,0 1.032,0   2,6 56,3 237,5  
Últimes dades anuals
2003 260,5 47
2004 287,0 42
2005 172,0 42
2006 252,0 57
2007 412,0 55
2008 263,0
2009 459,5 44
2010 -0,9 12,2 24,9 17,3 5,2 22,6 41,1 39,5 63,4 82,0 39,0 298,6 67
2011 -1,0 9,6 19,9 15,0 10,3 20,4 37,8 56,5 61,1 64,7 62,0 108,9 26
2012 0,0 13,8 25,9 19,1 0,0 24,3 39,8 51,1 60,7 74,0 1.013,8 1.017,1 1.020,4 45,0 301,3 48
2013 1,7 12,9 16,9 18,2 20,2 23,5 37,2 53,8 61,6 68,9 1.007,5 1.015,8 1.024,1 55,0 325,0 48
2014 1,7 13,7 24,4 19,0 7,7 24,3 37,1 37,0 62,8 88,5 751,5 978,8 1.032,0 52,0 203,4 54
2015 0,4 13,7 20,4 18,4 21,4 24,2 40,4 2,3 48,3 282,6 59
2016 1,8 13,6 23,8 18,2 11,7 23,7 40,9 2,2 46,7 315,9 58